sensor_id;sensor_type;location;lat;lon;timestamp;pressure;altitude;pressure_sealevel;temperature;humidity
71565;BME280;59397;50.952;14.502;2023-08-07T00:12:32;959.27;;;12.82;100.00
71565;BME280;59397;50.952;14.502;2023-08-07T00:32:05;959.23;;;12.61;100.00
71565;BME280;59397;50.952;14.502;2023-08-07T00:51:40;959.13;;;12.54;100.00
71565;BME280;59397;50.952;14.502;2023-08-07T01:11:18;959.21;;;12.44;100.00
71565;BME280;59397;50.952;14.502;2023-08-07T01:30:49;959.39;;;12.35;100.00
71565;BME280;59397;50.952;14.502;2023-08-07T01:50:23;959.37;;;12.38;100.00
71565;BME280;59397;50.952;14.502;2023-08-07T02:09:55;959.42;;;12.31;100.00
71565;BME280;59397;50.952;14.502;2023-08-07T02:29:29;959.50;;;12.31;100.00
71565;BME280;59397;50.952;14.502;2023-08-07T02:49:03;959.66;;;12.36;100.00
71565;BME280;59397;50.952;14.502;2023-08-07T03:08:35;959.83;;;12.06;100.00
71565;BME280;59397;50.952;14.502;2023-08-07T03:28:10;959.81;;;11.96;100.00
71565;BME280;59397;50.952;14.502;2023-08-07T03:47:43;959.98;;;11.88;100.00
71565;BME280;59397;50.952;14.502;2023-08-07T04:07:17;960.14;;;11.81;100.00
71565;BME280;59397;50.952;14.502;2023-08-07T04:26:52;960.37;;;11.79;100.00
71565;BME280;59397;50.952;14.502;2023-08-07T04:46:24;960.57;;;11.51;100.00
71565;BME280;59397;50.952;14.502;2023-08-07T05:05:58;960.78;;;11.42;100.00
71565;BME280;59397;50.952;14.502;2023-08-07T05:25:32;961.01;;;11.69;100.00
71565;BME280;59397;50.952;14.502;2023-08-07T05:45:07;961.09;;;11.92;100.00
71565;BME280;59397;50.952;14.502;2023-08-07T06:04:42;961.24;;;12.29;100.00
71565;BME280;59397;50.952;14.502;2023-08-07T06:24:17;961.53;;;12.24;100.00
71565;BME280;59397;50.952;14.502;2023-08-07T06:43:52;961.63;;;12.28;100.00
71565;BME280;59397;50.952;14.502;2023-08-07T07:03:26;961.90;;;12.53;100.00
71565;BME280;59397;50.952;14.502;2023-08-07T07:23:05;962.05;;;13.59;100.00
71565;BME280;59397;50.952;14.502;2023-08-07T07:42:38;962.34;;;13.23;100.00
71565;BME280;59397;50.952;14.502;2023-08-07T08:02:15;962.52;;;13.64;100.00
71565;BME280;59397;50.952;14.502;2023-08-07T08:21:46;962.72;;;13.30;100.00
71565;BME280;59397;50.952;14.502;2023-08-07T08:41:21;962.87;;;13.02;100.00
71565;BME280;59397;50.952;14.502;2023-08-07T09:00:58;962.95;;;14.52;100.00
71565;BME280;59397;50.952;14.502;2023-08-07T09:20:30;963.15;;;14.75;100.00
71565;BME280;59397;50.952;14.502;2023-08-07T09:40:06;963.28;;;14.88;100.00
71565;BME280;59397;50.952;14.502;2023-08-07T09:59:38;963.28;;;14.42;100.00
71565;BME280;59397;50.952;14.502;2023-08-07T10:19:14;963.56;;;13.50;100.00
71565;BME280;59397;50.952;14.502;2023-08-07T10:38:54;963.40;;;14.51;100.00
71565;BME280;59397;50.952;14.502;2023-08-07T10:58:30;963.20;;;14.68;100.00
71565;BME280;59397;50.952;14.502;2023-08-07T11:18:05;963.63;;;14.04;100.00
71565;BME280;59397;50.952;14.502;2023-08-07T11:37:27;963.85;;;13.39;100.00
71565;BME280;59397;50.952;14.502;2023-08-07T12:16:44;963.70;;;14.77;100.00
71565;BME280;59397;50.952;14.502;2023-08-07T12:36:16;963.95;;;14.91;100.00
71565;BME280;59397;50.952;14.502;2023-08-07T12:55:53;964.17;;;14.40;100.00
71565;BME280;59397;50.952;14.502;2023-08-07T13:15:26;964.25;;;14.69;100.00
71565;BME280;59397;50.952;14.502;2023-08-07T13:35:05;964.39;;;14.78;100.00
71565;BME280;59397;50.952;14.502;2023-08-07T13:54:37;964.45;;;15.02;100.00
71565;BME280;59397;50.952;14.502;2023-08-07T14:14:08;964.88;;;14.75;100.00
71565;BME280;59397;50.952;14.502;2023-08-07T14:33:44;965.06;;;14.76;100.00
71565;BME280;59397;50.952;14.502;2023-08-07T14:53:13;965.37;;;13.72;100.00
71565;BME280;59397;50.952;14.502;2023-08-07T15:12:46;965.80;;;13.22;100.00
71565;BME280;59397;50.952;14.502;2023-08-07T15:32:20;965.71;;;13.68;100.00
71565;BME280;59397;50.952;14.502;2023-08-07T15:51:56;965.45;;;14.19;100.00
71565;BME280;59397;50.952;14.502;2023-08-07T16:11:28;965.75;;;13.25;100.00
71565;BME280;59397;50.952;14.502;2023-08-07T16:31:03;965.77;;;13.52;100.00
71565;BME280;59397;50.952;14.502;2023-08-07T16:50:37;966.25;;;13.15;100.00
71565;BME280;59397;50.952;14.502;2023-08-07T17:10:08;966.37;;;12.68;100.00
71565;BME280;59397;50.952;14.502;2023-08-07T17:29:42;966.53;;;12.38;100.00
71565;BME280;59397;50.952;14.502;2023-08-07T17:49:14;967.11;;;12.16;100.00
71565;BME280;59397;50.952;14.502;2023-08-07T18:08:47;967.20;;;11.91;100.00
71565;BME280;59397;50.952;14.502;2023-08-07T18:28:20;967.12;;;11.61;100.00
71565;BME280;59397;50.952;14.502;2023-08-07T18:47:55;967.24;;;11.62;100.00
71565;BME280;59397;50.952;14.502;2023-08-07T19:07:28;967.41;;;11.54;100.00
71565;BME280;59397;50.952;14.502;2023-08-07T19:27:04;967.62;;;11.39;100.00
71565;BME280;59397;50.952;14.502;2023-08-07T19:46:37;967.71;;;11.26;100.00
71565;BME280;59397;50.952;14.502;2023-08-07T20:06:10;967.90;;;11.21;100.00
71565;BME280;59397;50.952;14.502;2023-08-07T20:25:45;968.00;;;11.07;100.00
71565;BME280;59397;50.952;14.502;2023-08-07T20:45:18;968.23;;;10.75;100.00
71565;BME280;59397;50.952;14.502;2023-08-07T21:04:52;968.41;;;10.81;100.00
71565;BME280;59397;50.952;14.502;2023-08-07T21:24:26;968.35;;;10.61;100.00
71565;BME280;59397;50.952;14.502;2023-08-07T21:44:01;968.35;;;11.16;100.00
71565;BME280;59397;50.952;14.502;2023-08-07T22:03:35;968.45;;;11.07;100.00
71565;BME280;59397;50.952;14.502;2023-08-07T22:23:08;968.81;;;10.89;100.00
71565;BME280;59397;50.952;14.502;2023-08-07T22:42:42;968.71;;;10.83;100.00
71565;BME280;59397;50.952;14.502;2023-08-07T23:02:08;968.65;;;10.69;100.00
71565;BME280;59397;50.952;14.502;2023-08-07T23:21:42;968.83;;;10.72;100.00
71565;BME280;59397;50.952;14.502;2023-08-07T23:41:15;968.87;;;10.50;100.00
